Date,TemperatureHighF,TemperatureAvgF,TemperatureLowF,DewpointHighF,DewpointAvgF,DewpointLowF,HumidityHigh,HumidityAvg,HumidityLow,PressureMaxIn,PressureMinIn,WindSpeedMaxMPH,WindSpeedAvgMPH,GustSpeedMaxMPH,PrecipitationSumIn
2013-9-1,75.7,71.2,66.5,70.1,67.5,65.4,98,88,79,29.93,29.84,13,3,17,0.00
2013-9-2,74.8,67.6,63.7,69.1,65.9,63.4,99,95,81,29.93,29.81,12,2,14,0.00
2013-9-3,76.3,70.6,66.1,70.6,67.2,64.9,97,89,77,29.91,29.82,9,2,11,0.00
2013-9-4,77.5,71.8,68.1,70.7,66.5,63.8,94,84,64,29.90,29.83,13,2,14,0.00
2013-9-5,75.0,71.4,67.3,69.1,65.6,63.1,89,82,71,29.90,29.82,12,2,13,0.00
2013-9-6,76.1,72.1,68.3,70.4,65.8,62.1,89,81,72,29.87,29.79,10,2,11,0.00
2013-9-7,75.8,69.9,66.4,70.3,65.7,61.1,93,86,72,29.86,29.80,11,2,12,0.00
2013-9-8,71.0,66.6,62.6,67.0,63.7,61.1,96,91,82,29.86,29.76,12,2,13,0.00
2013-9-9,69.7,64.9,62.3,65.2,62.2,60.3,96,91,83,29.83,29.76,11,2,14,0.00
2013-9-10,71.5,65.7,61.9,64.2,61.5,59.1,95,86,75,29.95,29.81,10,2,10,0.00
2013-9-11,70.0,65.3,62.0,63.8,61.2,59.0,94,87,76,30.01,29.93,11,2,12,0.00
2013-9-12,70.2,65.0,59.8,65.5,62.1,58.1,96,91,83,29.94,29.83,12,3,13,0.00
2013-9-13,70.8,64.5,59.8,66.3,62.2,58.4,97,92,83,29.84,29.67,11,2,11,0.01
2013-9-14,70.4,64.3,60.5,66.9,62.8,59.6,98,95,86,29.73,29.64,11,1,12,0.01
2013-9-15,71.9,66.4,62.8,68.4,64.5,61.7,98,94,83,29.77,29.70,14,2,14,0.00
2013-9-16,71.7,67.0,62.3,67.2,63.9,60.3,96,90,78,29.82,29.75,12,2,13,0.01
2013-9-17,70.0,65.3,62.3,63.8,62.5,60.9,97,91,78,29.83,29.75,10,2,12,0.00
2013-9-18,71.8,66.4,63.2,64.1,61.1,59.4,92,83,72,29.82,29.75,10,3,10,0.00
2013-9-19,72.8,66.9,61.6,64.7,62.4,59.7,95,86,74,29.83,29.76,9,3,10,0.00
2013-9-20,67.6,66.4,65.4,64.4,62.7,61.2,92,88,83,29.90,29.82,7,2,7,0.00
2013-9-21,70.5,66.9,62.0,63.6,61.3,58.6,93,82,72,29.92,29.82,13,3,15,0.00
2013-9-22,71.0,65.5,60.9,63.7,59.2,49.8,93,81,62,29.86,29.80,11,3,13,0.00
2013-9-23,76.5,69.7,62.6,62.6,58.3,51.4,79,68,46,29.90,29.82,7,1,7,0.00
2013-9-24,78.6,70.2,62.6,67.3,61.3,50.9,93,74,50,29.94,29.84,11,2,12,0.00
2013-9-25,71.6,67.0,64.3,65.2,62.4,58.7,93,85,74,29.86,29.71,17,6,19,0.00
2013-9-26,70.9,65.6,60.9,61.5,57.8,53.4,84,76,59,29.88,29.72,18,5,18,0.00
2013-9-27,74.2,66.1,55.2,62.7,51.6,35.8,85,63,29,29.99,29.87,17,4,17,0.00
2013-9-28,77.6,68.4,59.1,61.2,46.7,35.3,74,47,29,30.04,29.95,14,3,15,0.00
2013-9-29,74.1,67.1,58.6,65.8,56.3,43.1,90,69,44,30.07,29.97,11,3,11,0.00
2013-9-30,73.1,65.0,58.3,66.0,61.4,56.2,96,88,76,29.99,29.86,9,2,10,0.00